createdAt,value
2019-02-21T00:00:07.094Z,15.25
2019-02-21T00:00:38.325Z,16.20
2019-02-21T00:01:09.542Z,16.15
2019-02-21T00:01:40.751Z,15.60
2019-02-21T00:02:11.952Z,15.58
2019-02-21T00:02:43.182Z,14.35
2019-02-21T00:03:14.478Z,16.80
2019-02-21T00:03:45.675Z,15.90
2019-02-21T00:04:16.895Z,16.50
2019-02-21T00:04:48.110Z,16.67
2019-02-21T00:05:19.362Z,15.75
2019-02-21T00:05:50.585Z,16.45
2019-02-21T00:06:21.811Z,15.63
2019-02-21T00:06:53.026Z,15.85
2019-02-21T00:07:24.258Z,14.63
2019-02-21T00:07:55.466Z,15.35
2019-02-21T00:08:26.695Z,16.57
2019-02-21T00:08:57.955Z,15.15
2019-02-21T00:09:29.157Z,16.07
2019-02-21T00:10:00.505Z,14.95
2019-02-21T00:10:31.838Z,15.32
2019-02-21T00:11:03.101Z,15.80
2019-02-21T00:11:34.298Z,16.85
2019-02-21T00:12:05.522Z,15.75
2019-02-21T00:12:36.730Z,15.88
2019-02-21T00:13:07.942Z,16.25
2019-02-21T00:13:39.165Z,16.10
2019-02-21T00:14:10.356Z,15.65
2019-02-21T00:14:41.559Z,15.50
2019-02-21T00:15:12.870Z,15.53
2019-02-21T00:15:44.111Z,15.55
2019-02-21T00:16:15.344Z,17.07
2019-02-21T00:16:46.576Z,16.50
2019-02-21T00:17:17.794Z,16.23
2019-02-21T00:17:49.173Z,15.43
2019-02-21T00:18:20.417Z,16.20
2019-02-21T00:18:51.621Z,15.65
2019-02-21T00:19:22.842Z,15.78
2019-02-21T00:19:54.042Z,14.90
2019-02-21T00:20:25.276Z,15.70
2019-02-21T00:20:56.877Z,16.17
2019-02-21T00:21:28.074Z,16.30
2019-02-21T00:21:59.291Z,15.80
2019-02-21T00:22:30.504Z,16.90
2019-02-21T00:23:01.765Z,15.35
2019-02-21T00:23:32.977Z,15.68
2019-02-21T00:24:04.186Z,15.10
2019-02-21T00:24:35.409Z,15.60
2019-02-21T00:25:06.654Z,15.53
2019-02-21T00:25:37.876Z,16.30
2019-02-21T00:26:09.108Z,14.73
2019-02-21T00:26:40.347Z,15.80
2019-02-21T00:27:11.586Z,16.23
2019-02-21T00:27:42.801Z,14.95
2019-02-21T00:28:14.056Z,16.73
2019-02-21T00:28:45.258Z,16.25
2019-02-21T00:29:16.480Z,15.30
2019-02-21T00:29:47.695Z,15.60
2019-02-21T00:30:18.906Z,15.40
2019-02-21T00:30:50.160Z,15.60
2019-02-21T00:31:21.398Z,14.68
2019-02-21T00:31:52.604Z,14.90
2019-02-21T00:32:23.813Z,14.93
2019-02-21T00:32:55.068Z,14.98
2019-02-21T00:33:26.273Z,15.43
2019-02-21T00:33:57.539Z,15.18
2019-02-21T00:34:28.763Z,14.20
2019-02-21T00:34:59.991Z,14.93
2019-02-21T00:35:31.225Z,14.33
2019-02-21T00:36:02.431Z,14.33
2019-02-21T00:36:33.650Z,15.05
2019-02-21T00:37:04.879Z,13.75
2019-02-21T00:37:36.092Z,13.88
2019-02-21T00:38:07.303Z,14.05
2019-02-21T00:38:38.505Z,14.73
2019-02-21T00:39:09.758Z,13.58
2019-02-21T00:39:40.965Z,14.10
2019-02-21T00:40:12.182Z,14.47
2019-02-21T00:40:43.399Z,14.65
2019-02-21T00:41:14.608Z,13.70
2019-02-21T00:41:45.813Z,14.40
2019-02-21T00:42:17.053Z,13.43
2019-02-21T00:42:48.312Z,14.45
2019-02-21T00:43:19.915Z,15.08
2019-02-21T00:43:51.148Z,14.18
2019-02-21T00:44:22.344Z,14.35
2019-02-21T00:44:53.608Z,14.85
2019-02-21T00:45:24.809Z,13.72
2019-02-21T00:45:56.079Z,13.58
2019-02-21T00:46:27.328Z,13.83
2019-02-21T00:46:58.543Z,13.93
2019-02-21T00:47:29.754Z,14.45
2019-02-21T00:48:01.133Z,14.78
2019-02-21T00:48:32.335Z,14.55
2019-02-21T00:49:03.553Z,14.23
2019-02-21T00:49:34.758Z,12.47
2019-02-21T00:50:05.970Z,12.82
2019-02-21T00:50:37.361Z,14.07
2019-02-21T00:51:08.568Z,13.65
2019-02-21T00:51:39.790Z,13.75
2019-02-21T00:52:11.040Z,14.18
2019-02-21T00:52:42.314Z,13.55
2019-02-21T00:53:13.527Z,14.85
2019-02-21T00:53:44.760Z,12.10
2019-02-21T00:54:15.989Z,13.83
2019-02-21T00:54:47.209Z,14.00
2019-02-21T00:55:18.423Z,14.23
2019-02-21T00:55:49.629Z,13.85
2019-02-21T00:56:20.888Z,13.95
2019-02-21T00:56:52.086Z,14.23
2019-02-21T00:57:23.294Z,14.07
2019-02-21T00:57:54.512Z,15.48
2019-02-21T00:58:25.774Z,13.08
2019-02-21T00:58:56.975Z,14.30
2019-02-21T00:59:28.194Z,14.68
2019-02-21T00:59:59.481Z,14.58
2019-02-21T01:00:30.735Z,13.65
2019-02-21T01:01:02.006Z,13.50
2019-02-21T01:01:33.228Z,14.33
2019-02-21T01:02:04.433Z,14.68
2019-02-21T01:02:35.646Z,11.63
2019-02-21T01:03:06.856Z,13.48
2019-02-21T01:03:38.079Z,13.75
2019-02-21T01:04:09.283Z,14.20
2019-02-21T01:04:40.505Z,14.07
2019-02-21T01:05:11.717Z,14.05
2019-02-21T01:05:42.965Z,13.83
2019-02-21T01:06:14.174Z,14.03
2019-02-21T01:06:45.470Z,13.88
2019-02-21T01:07:16.675Z,15.55
2019-02-21T01:07:47.887Z,14.10
2019-02-21T01:08:19.086Z,13.80
2019-02-21T01:08:50.296Z,13.00
2019-02-21T01:09:21.502Z,12.63
2019-02-21T01:09:52.724Z,14.28
2019-02-21T01:10:23.947Z,13.95
2019-02-21T01:10:55.138Z,12.93
2019-02-21T01:11:26.386Z,14.28
2019-02-21T01:11:57.602Z,13.85
2019-02-21T01:12:28.866Z,13.28
2019-02-21T01:13:00.079Z,13.10
2019-02-21T01:13:31.285Z,14.07
2019-02-21T01:14:02.505Z,13.98
2019-02-21T01:14:33.757Z,14.10
2019-02-21T01:15:04.968Z,13.70
2019-02-21T01:15:36.181Z,14.50
2019-02-21T01:16:07.379Z,14.58
2019-02-21T01:16:38.577Z,12.53
2019-02-21T01:17:09.796Z,14.75
2019-02-21T01:17:41.057Z,15.13
2019-02-21T01:18:12.261Z,15.10
2019-02-21T01:18:43.474Z,14.47
2019-02-21T01:19:14.715Z,14.53
2019-02-21T01:19:46.565Z,13.90
2019-02-21T01:20:17.770Z,14.68
2019-02-21T01:20:48.970Z,14.40
2019-02-21T01:21:20.230Z,14.85
2019-02-21T01:21:51.411Z,15.00
2019-02-21T01:22:22.622Z,14.78
2019-02-21T01:22:53.861Z,14.70
2019-02-21T01:23:25.072Z,14.70
2019-02-21T01:23:56.290Z,13.88
2019-02-21T01:24:27.499Z,14.73
2019-02-21T01:24:58.702Z,14.07
2019-02-21T01:25:29.952Z,15.23
2019-02-21T01:26:01.165Z,13.85
2019-02-21T01:26:32.407Z,14.18
2019-02-21T01:27:03.684Z,13.32
2019-02-21T01:27:34.891Z,14.98
2019-02-21T01:28:06.113Z,13.83
2019-02-21T01:28:37.326Z,14.10
2019-02-21T01:29:08.534Z,14.58
2019-02-21T01:29:40.682Z,14.50
2019-02-21T01:30:11.920Z,15.32
2019-02-21T01:30:43.164Z,15.23
2019-02-21T01:31:14.426Z,14.73
2019-02-21T01:31:45.623Z,14.68
2019-02-21T01:32:16.829Z,14.98
2019-02-21T01:32:48.068Z,15.53
2019-02-21T01:33:19.273Z,15.05
2019-02-21T01:33:50.707Z,15.03
2019-02-21T01:34:21.923Z,14.28
2019-02-21T01:34:53.128Z,15.68
2019-02-21T01:35:24.371Z,15.80
2019-02-21T01:35:55.631Z,15.65
2019-02-21T01:36:27.000Z,14.47
2019-02-21T01:36:58.223Z,16.57
2019-02-21T01:37:29.453Z,15.28
2019-02-21T01:38:00.654Z,16.62
2019-02-21T01:38:31.884Z,14.93
2019-02-21T01:39:03.097Z,15.28
2019-02-21T01:39:34.305Z,16.15
2019-02-21T01:40:05.506Z,14.25
2019-02-21T01:40:36.766Z,16.75
2019-02-21T01:41:07.993Z,15.78
2019-02-21T01:41:39.217Z,15.90
2019-02-21T01:42:10.430Z,16.52
2019-02-21T01:42:41.628Z,15.98
2019-02-21T01:43:12.862Z,15.45
2019-02-21T01:43:44.060Z,13.10
2019-02-21T01:44:15.285Z,14.35
2019-02-21T01:44:46.592Z,16.75
2019-02-21T01:45:17.802Z,16.57
2019-02-21T01:45:49.010Z,17.82
2019-02-21T01:46:20.236Z,17.50
2019-02-21T01:46:51.436Z,17.52
2019-02-21T01:47:22.690Z,16.77
2019-02-21T01:47:54.466Z,16.75
2019-02-21T01:48:25.689Z,18.02
2019-02-21T01:48:59.415Z,15.32
2019-02-21T01:49:29.859Z,18.07
2019-02-21T01:50:01.125Z,16.67
2019-02-21T01:50:32.341Z,15.43
2019-02-21T01:51:03.573Z,15.58
2019-02-21T01:51:34.773Z,15.35
2019-02-21T01:52:06.049Z,17.75
2019-02-21T01:52:37.248Z,15.85
2019-02-21T01:53:08.469Z,15.00
2019-02-21T01:53:39.772Z,15.83
2019-02-21T01:54:10.983Z,16.23
2019-02-21T01:54:42.202Z,15.53
2019-02-21T01:55:13.411Z,15.88
2019-02-21T01:55:44.609Z,16.12
2019-02-21T01:56:15.864Z,15.43
2019-02-21T01:56:47.122Z,16.52
2019-02-21T01:57:18.327Z,17.73
2019-02-21T01:57:49.538Z,15.28
2019-02-21T01:58:20.741Z,16.87
2019-02-21T01:58:51.969Z,16.95
2019-02-21T01:59:23.171Z,14.80
2019-02-21T01:59:54.376Z,15.43
2019-02-21T02:00:25.609Z,17.27
2019-02-21T02:01:07.593Z,16.57
2019-02-21T02:01:29.812Z,16.05
2019-02-21T02:02:01.086Z,17.07
2019-02-21T02:02:32.294Z,16.10
2019-02-21T02:03:03.500Z,16.32
2019-02-21T02:03:34.720Z,15.72
2019-02-21T02:04:05.924Z,16.27
2019-02-21T02:04:37.149Z,16.10
2019-02-21T02:05:08.392Z,18.52
2019-02-21T02:05:39.614Z,16.50
2019-02-21T02:06:10.834Z,15.95
2019-02-21T02:06:42.046Z,17.00
2019-02-21T02:07:13.309Z,15.95
2019-02-21T02:07:44.532Z,15.72
2019-02-21T02:08:15.853Z,16.65
2019-02-21T02:08:47.026Z,15.43
2019-02-21T02:09:18.246Z,15.53
2019-02-21T02:09:49.444Z,16.57
2019-02-21T02:10:20.670Z,16.50
2019-02-21T02:10:51.881Z,17.25
2019-02-21T02:11:23.134Z,17.12
2019-02-21T02:11:54.377Z,16.27
2019-02-21T02:12:25.579Z,16.97
2019-02-21T02:12:56.860Z,16.85
2019-02-21T02:13:28.169Z,17.40
2019-02-21T02:13:59.372Z,16.73
2019-02-21T02:14:30.592Z,15.88
2019-02-21T02:15:01.800Z,17.07
2019-02-21T02:15:33.037Z,17.30
2019-02-21T02:16:04.253Z,16.95
2019-02-21T02:16:35.468Z,16.90
2019-02-21T02:17:06.665Z,17.05
2019-02-21T02:17:37.897Z,16.65
2019-02-21T02:18:09.142Z,16.90
2019-02-21T02:18:40.405Z,16.52
2019-02-21T02:19:11.622Z,17.52
2019-02-21T02:19:42.826Z,16.15
2019-02-21T02:20:14.034Z,17.12
2019-02-21T02:20:45.260Z,16.55
2019-02-21T02:21:16.492Z,17.55
2019-02-21T02:21:47.765Z,17.20
2019-02-21T02:22:18.957Z,16.37
2019-02-21T02:22:50.161Z,16.67
2019-02-21T02:23:21.384Z,16.65
2019-02-21T02:23:52.624Z,16.35
2019-02-21T02:24:23.809Z,16.20
2019-02-21T02:24:55.032Z,17.52
2019-02-21T02:25:26.250Z,16.85
2019-02-21T02:25:57.487Z,17.87
2019-02-21T02:26:28.680Z,17.02
2019-02-21T02:26:59.893Z,17.25
2019-02-21T02:27:31.117Z,17.87
2019-02-21T02:28:02.345Z,16.10
2019-02-21T02:28:33.557Z,15.18
2019-02-21T02:29:04.765Z,18.45
2019-02-21T02:29:36.034Z,16.73
2019-02-21T02:30:07.258Z,17.52
2019-02-21T02:30:38.487Z,15.48
2019-02-21T02:31:22.021Z,16.62
2019-02-21T02:31:42.604Z,18.80
2019-02-21T02:32:13.806Z,18.17
2019-02-21T02:32:45.052Z,16.20
2019-02-21T02:33:16.284Z,17.45
2019-02-21T02:33:47.532Z,17.80
2019-02-21T02:34:18.738Z,17.52
2019-02-21T02:34:49.945Z,17.20
2019-02-21T02:35:21.182Z,17.80
2019-02-21T02:35:52.405Z,14.68
2019-02-21T02:36:23.588Z,18.00
2019-02-21T02:36:54.796Z,17.02
2019-02-21T02:37:26.008Z,16.48
2019-02-21T02:37:57.311Z,17.65
2019-02-21T02:38:28.511Z,17.45
2019-02-21T02:38:59.713Z,16.20
2019-02-21T02:39:30.931Z,16.23
2019-02-21T02:40:02.138Z,16.50
2019-02-21T02:40:33.470Z,16.62
2019-02-21T02:41:04.704Z,16.93
2019-02-21T02:41:35.932Z,16.67
2019-02-21T02:42:07.122Z,16.50
2019-02-21T02:42:38.380Z,16.55
2019-02-21T02:43:09.665Z,15.85
2019-02-21T02:43:40.953Z,16.62
2019-02-21T02:44:12.166Z,16.85
2019-02-21T02:44:43.378Z,17.17
2019-02-21T02:45:14.579Z,16.80
2019-02-21T02:45:45.793Z,16.05
2019-02-21T02:46:17.051Z,17.10
2019-02-21T02:46:48.308Z,15.90
2019-02-21T02:47:19.507Z,17.27
2019-02-21T02:47:50.777Z,15.35
2019-02-21T02:48:22.001Z,16.48
2019-02-21T02:48:53.210Z,16.45
2019-02-21T02:49:24.470Z,17.35
2019-02-21T02:49:55.769Z,15.30
2019-02-21T02:50:26.978Z,16.12
2019-02-21T02:50:58.215Z,17.23
2019-02-21T02:51:29.476Z,16.25
2019-02-21T02:52:00.719Z,17.15
2019-02-21T02:52:31.934Z,17.07
2019-02-21T02:53:03.136Z,15.35
2019-02-21T02:53:34.349Z,16.15
2019-02-21T02:54:05.620Z,16.62
2019-02-21T02:54:36.829Z,16.37
2019-02-21T02:55:08.096Z,16.77
2019-02-21T02:55:39.306Z,17.55
2019-02-21T02:56:10.511Z,14.00
2019-02-21T02:56:41.769Z,15.13
2019-02-21T02:57:12.960Z,16.73
2019-02-21T02:57:44.177Z,16.25
2019-02-21T02:58:15.400Z,15.70
2019-02-21T02:58:46.624Z,16.57
2019-02-21T02:59:17.880Z,15.55
2019-02-21T02:59:49.081Z,13.78
2019-02-21T03:00:20.297Z,15.90
2019-02-21T03:00:51.549Z,15.23
2019-02-21T03:01:34.361Z,16.25
2019-02-21T03:01:55.712Z,15.68
2019-02-21T03:02:26.914Z,15.68
2019-02-21T03:02:58.127Z,15.63
2019-02-21T03:03:29.497Z,14.93
2019-02-21T03:04:00.697Z,15.28
2019-02-21T03:04:32.028Z,15.40
2019-02-21T03:05:03.263Z,14.35
2019-02-21T03:05:34.466Z,15.43
2019-02-21T03:06:05.755Z,15.00
2019-02-21T03:06:36.965Z,15.70
2019-02-21T03:07:08.194Z,15.93
2019-02-21T03:07:39.424Z,15.53
2019-02-21T03:08:10.640Z,15.98
2019-02-21T03:08:41.873Z,15.35
2019-02-21T03:09:13.074Z,16.23
2019-02-21T03:09:44.323Z,13.83
2019-02-21T03:10:15.500Z,14.70
2019-02-21T03:10:46.718Z,14.58
2019-02-21T03:11:17.934Z,15.13
2019-02-21T03:11:51.762Z,13.43
2019-02-21T03:12:22.111Z,15.63
2019-02-21T03:12:53.304Z,16.30
2019-02-21T03:13:24.565Z,15.70
2019-02-21T03:13:55.746Z,15.75
2019-02-21T03:14:26.981Z,15.20
2019-02-21T03:14:58.191Z,14.33
2019-02-21T03:15:29.398Z,15.03
2019-02-21T03:16:00.590Z,13.90
2019-02-21T03:16:31.850Z,14.87
2019-02-21T03:17:03.076Z,14.47
2019-02-21T03:17:34.355Z,12.55
2019-02-21T03:18:05.565Z,14.83
2019-02-21T03:18:36.780Z,14.53
2019-02-21T03:19:07.987Z,15.10
2019-02-21T03:19:39.184Z,15.88
2019-02-21T03:20:10.520Z,15.03
2019-02-21T03:20:41.766Z,16.37
2019-02-21T03:21:13.076Z,14.73
2019-02-21T03:21:44.318Z,15.18
2019-02-21T03:22:15.587Z,15.78
2019-02-21T03:22:46.828Z,15.60
2019-02-21T03:23:18.120Z,15.43
2019-02-21T03:23:49.347Z,16.37
2019-02-21T03:24:20.555Z,15.70
2019-02-21T03:24:51.775Z,15.65
2019-02-21T03:25:22.979Z,16.32
2019-02-21T03:25:54.339Z,15.03
2019-02-21T03:26:25.564Z,15.15
2019-02-21T03:26:56.770Z,16.27
2019-02-21T03:27:28.023Z,15.15
2019-02-21T03:27:59.239Z,14.85
2019-02-21T03:28:30.452Z,16.75
2019-02-21T03:29:01.718Z,16.35
2019-02-21T03:29:32.922Z,15.30
2019-02-21T03:30:04.126Z,16.55
2019-02-21T03:30:35.337Z,16.25
2019-02-21T03:31:06.582Z,15.32
2019-02-21T03:31:53.712Z,15.63
2019-02-21T03:32:10.755Z,15.93
2019-02-21T03:32:41.986Z,16.32
2019-02-21T03:33:13.179Z,15.70
2019-02-21T03:33:44.572Z,16.07
2019-02-21T03:34:15.812Z,16.42
2019-02-21T03:34:47.104Z,15.23
2019-02-21T03:35:18.273Z,16.50
2019-02-21T03:35:49.475Z,15.58
2019-02-21T03:36:20.688Z,15.40
2019-02-21T03:36:51.919Z,15.60
2019-02-21T03:37:23.143Z,16.12
2019-02-21T03:37:56.417Z,16.00
2019-02-21T03:38:27.301Z,15.55
2019-02-21T03:38:58.500Z,16.00
2019-02-21T03:39:29.731Z,17.07
2019-02-21T03:40:00.968Z,15.53
2019-02-21T03:40:32.202Z,15.25
2019-02-21T03:41:03.412Z,16.35
2019-02-21T03:41:34.633Z,15.93
2019-02-21T03:42:05.901Z,15.88
2019-02-21T03:42:37.111Z,15.75
2019-02-21T03:43:08.377Z,16.40
2019-02-21T03:43:39.580Z,16.20
2019-02-21T03:44:10.969Z,16.45
2019-02-21T03:44:42.170Z,15.85
2019-02-21T03:45:13.417Z,15.30
2019-02-21T03:45:44.631Z,13.10
2019-02-21T03:46:15.837Z,14.25
2019-02-21T03:46:47.117Z,15.45
2019-02-21T03:47:18.322Z,16.23
2019-02-21T03:47:49.542Z,16.50
2019-02-21T03:48:20.756Z,16.30
2019-02-21T03:48:51.981Z,16.50
2019-02-21T03:49:23.183Z,16.45
2019-02-21T03:49:54.442Z,15.98
2019-02-21T03:50:25.640Z,17.60
2019-02-21T03:50:56.865Z,17.65
2019-02-21T03:51:28.093Z,17.15
2019-02-21T03:51:59.286Z,17.12
2019-02-21T03:52:30.497Z,16.48
2019-02-21T03:53:01.838Z,17.37
2019-02-21T03:53:33.136Z,17.80
2019-02-21T03:54:04.395Z,18.02
2019-02-21T03:54:35.591Z,18.10
2019-02-21T03:55:06.915Z,17.25
2019-02-21T03:55:38.116Z,18.87
2019-02-21T03:56:09.317Z,16.97
2019-02-21T03:56:40.529Z,18.32
2019-02-21T03:57:11.736Z,17.77
2019-02-21T03:57:43.106Z,16.62
2019-02-21T03:58:14.464Z,17.12
2019-02-21T03:58:45.721Z,17.85
2019-02-21T03:59:16.940Z,17.35
2019-02-21T03:59:48.197Z,18.20
2019-02-21T04:00:19.410Z,17.50
2019-02-21T04:00:50.635Z,17.80
2019-02-21T04:01:21.846Z,17.65
2019-02-21T04:02:04.554Z,14.78
2019-02-21T04:02:25.988Z,16.97
2019-02-21T04:02:57.246Z,17.95
2019-02-21T04:03:28.464Z,19.17
2019-02-21T04:03:59.705Z,15.28
2019-02-21T04:04:30.916Z,18.30
2019-02-21T04:05:02.173Z,17.77
2019-02-21T04:05:33.423Z,18.50
2019-02-21T04:06:04.643Z,18.50
2019-02-21T04:06:35.856Z,18.20
2019-02-21T04:07:07.093Z,19.67
2019-02-21T04:07:38.366Z,17.92
2019-02-21T04:08:09.632Z,17.60
2019-02-21T04:08:40.905Z,17.60
2019-02-21T04:09:12.101Z,18.52
2019-02-21T04:09:43.417Z,18.15
2019-02-21T04:10:14.609Z,18.82
2019-02-21T04:10:45.819Z,16.93
2019-02-21T04:11:17.041Z,16.87
2019-02-21T04:11:48.243Z,17.57
2019-02-21T04:12:19.550Z,17.12
2019-02-21T04:12:50.827Z,18.90
2019-02-21T04:13:22.060Z,18.80
2019-02-21T04:13:53.263Z,19.10
2019-02-21T04:14:24.517Z,19.90
2019-02-21T04:14:55.789Z,19.30
2019-02-21T04:15:27.019Z,19.92
2019-02-21T04:15:58.221Z,19.57
2019-02-21T04:16:29.467Z,18.45
2019-02-21T04:17:00.678Z,15.08
2019-02-21T04:17:31.931Z,19.50
2019-02-21T04:18:03.141Z,19.05
2019-02-21T04:18:34.366Z,19.90
2019-02-21T04:19:05.577Z,21.73
2019-02-21T04:19:36.786Z,18.73
2019-02-21T04:20:08.142Z,19.65
2019-02-21T04:20:39.419Z,20.00
2019-02-21T04:21:10.618Z,19.15
2019-02-21T04:21:41.865Z,19.55
2019-02-21T04:22:13.091Z,19.37
2019-02-21T04:22:44.308Z,19.75
2019-02-21T04:23:15.623Z,20.20
2019-02-21T04:23:46.828Z,20.85
2019-02-21T04:24:18.050Z,20.57
2019-02-21T04:24:49.249Z,20.30
2019-02-21T04:25:20.459Z,19.57
2019-02-21T04:25:51.813Z,20.72
2019-02-21T04:26:23.037Z,21.25
2019-02-21T04:26:54.259Z,19.60
2019-02-21T04:27:25.469Z,20.62
2019-02-21T04:27:56.676Z,20.57
2019-02-21T04:28:27.877Z,21.57
2019-02-21T04:28:59.105Z,19.42
2019-02-21T04:29:30.311Z,19.77
2019-02-21T04:30:01.526Z,20.68
2019-02-21T04:30:32.741Z,20.23
2019-02-21T04:31:03.993Z,20.92
2019-02-21T04:31:35.206Z,20.23
2019-02-21T04:32:16.577Z,20.80
2019-02-21T04:32:39.422Z,21.68
2019-02-21T04:33:10.675Z,21.10
2019-02-21T04:33:41.877Z,19.05
2019-02-21T04:34:13.107Z,20.55
2019-02-21T04:34:46.647Z,20.27
2019-02-21T04:35:17.866Z,20.25
2019-02-21T04:35:49.077Z,21.33
2019-02-21T04:36:23.117Z,19.98
2019-02-21T04:36:53.254Z,21.68
2019-02-21T04:37:24.476Z,19.90
2019-02-21T04:37:55.786Z,20.68
2019-02-21T04:38:26.995Z,21.05
2019-02-21T04:38:58.257Z,21.75
2019-02-21T04:39:29.471Z,19.90
2019-02-21T04:40:00.689Z,18.80
2019-02-21T04:40:31.902Z,20.85
2019-02-21T04:41:03.132Z,20.25
2019-02-21T04:41:34.397Z,21.10
2019-02-21T04:42:05.600Z,20.37
2019-02-21T04:42:36.811Z,19.67
2019-02-21T04:43:08.017Z,20.37
2019-02-21T04:43:39.218Z,20.57
2019-02-21T04:44:10.425Z,21.45
2019-02-21T04:44:41.630Z,20.48
2019-02-21T04:45:12.856Z,20.90
2019-02-21T04:45:44.118Z,20.02
2019-02-21T04:46:15.328Z,20.37
2019-02-21T04:46:46.542Z,22.27
2019-02-21T04:47:17.755Z,21.87
2019-02-21T04:47:48.964Z,20.43
2019-02-21T04:48:20.186Z,21.05
2019-02-21T04:48:51.432Z,20.92
2019-02-21T04:49:22.650Z,20.68
2019-02-21T04:49:53.889Z,19.92
2019-02-21T04:50:25.103Z,20.77
2019-02-21T04:50:56.307Z,20.95
2019-02-21T04:51:27.577Z,20.82
2019-02-21T04:51:58.815Z,21.45
2019-02-21T04:52:30.020Z,22.30
2019-02-21T04:53:01.236Z,22.05
2019-02-21T04:53:32.481Z,22.00
2019-02-21T04:54:03.705Z,22.45
2019-02-21T04:54:34.908Z,20.45
2019-02-21T04:55:06.128Z,21.65
2019-02-21T04:55:37.335Z,22.22
2019-02-21T04:56:08.550Z,22.48
2019-02-21T04:56:39.836Z,22.50
2019-02-21T04:57:11.049Z,21.75
2019-02-21T04:57:42.258Z,20.20
2019-02-21T04:58:13.457Z,21.77
2019-02-21T04:58:45.045Z,21.05
2019-02-21T04:59:16.256Z,23.22
2019-02-21T04:59:47.468Z,22.27
2019-02-21T05:00:18.683Z,22.05
2019-02-21T05:00:49.902Z,22.27
2019-02-21T05:01:21.206Z,22.27
2019-02-21T05:01:52.460Z,22.30
2019-02-21T05:02:29.017Z,23.52
2019-02-21T05:02:56.612Z,21.30
2019-02-21T05:03:27.817Z,22.73
2019-02-21T05:03:59.031Z,20.95
2019-02-21T05:04:30.247Z,22.58
2019-02-21T05:05:01.461Z,21.60
2019-02-21T05:05:32.669Z,23.55
2019-02-21T05:06:03.929Z,23.35
2019-02-21T05:06:35.140Z,23.05
2019-02-21T05:07:06.363Z,22.80
2019-02-21T05:07:37.621Z,22.75
2019-02-21T05:08:08.835Z,22.73
2019-02-21T05:08:40.043Z,21.77
2019-02-21T05:09:11.271Z,22.40
2019-02-21T05:09:42.503Z,20.90
2019-02-21T05:10:13.733Z,22.85
2019-02-21T05:10:44.968Z,22.62
2019-02-21T05:11:16.200Z,21.77
2019-02-21T05:11:47.491Z,22.20
2019-02-21T05:12:18.722Z,23.75
2019-02-21T05:12:49.967Z,23.85
2019-02-21T05:13:21.182Z,22.65
2019-02-21T05:13:52.391Z,23.30
2019-02-21T05:14:23.604Z,24.05
2019-02-21T05:14:54.840Z,22.13
2019-02-21T05:15:26.103Z,21.55
2019-02-21T05:15:57.352Z,21.02
2019-02-21T05:16:28.622Z,21.68
2019-02-21T05:17:00.713Z,21.45
2019-02-21T05:17:32.115Z,21.15
2019-02-21T05:18:03.355Z,21.42
2019-02-21T05:18:34.656Z,21.27
2019-02-21T05:19:05.865Z,19.67
2019-02-21T05:19:37.052Z,20.27
2019-02-21T05:20:08.324Z,19.15
2019-02-21T05:20:39.601Z,19.77
2019-02-21T05:21:10.964Z,22.00
2019-02-21T05:21:42.182Z,20.80
2019-02-21T05:22:13.382Z,20.50
2019-02-21T05:22:44.600Z,22.62
2019-02-21T05:23:15.847Z,21.17
2019-02-21T05:23:47.062Z,22.45
2019-02-21T05:24:18.286Z,23.02
2019-02-21T05:24:49.486Z,19.67
2019-02-21T05:25:20.695Z,20.48
2019-02-21T05:25:51.917Z,22.40
2019-02-21T05:26:23.147Z,20.60
2019-02-21T05:26:54.342Z,22.42
2019-02-21T05:27:25.556Z,22.90
2019-02-21T05:27:57.252Z,21.70
2019-02-21T05:28:28.467Z,21.93
2019-02-21T05:28:59.683Z,18.77
2019-02-21T05:29:30.890Z,18.90
2019-02-21T05:30:02.105Z,22.48
2019-02-21T05:30:36.182Z,21.55
2019-02-21T05:31:06.285Z,19.77
2019-02-21T05:31:37.491Z,22.35
2019-02-21T05:32:08.690Z,21.87
2019-02-21T05:32:41.227Z,20.95
2019-02-21T05:33:12.683Z,22.15
2019-02-21T05:33:43.878Z,21.30
2019-02-21T05:34:15.097Z,21.60
2019-02-21T05:34:46.301Z,22.35
2019-02-21T05:35:17.503Z,21.55
2019-02-21T05:35:48.729Z,22.30
2019-02-21T05:36:19.978Z,23.75
2019-02-21T05:36:51.197Z,23.22
2019-02-21T05:37:23.480Z,24.40
2019-02-21T05:37:54.687Z,23.80
2019-02-21T05:38:25.887Z,24.57
2019-02-21T05:38:57.101Z,22.27
2019-02-21T05:39:30.336Z,22.75
2019-02-21T05:40:03.122Z,24.50
2019-02-21T05:40:34.268Z,23.10
2019-02-21T05:41:05.524Z,23.80
2019-02-21T05:41:36.728Z,23.57
2019-02-21T05:42:09.140Z,23.00
2019-02-21T05:42:40.339Z,24.05
2019-02-21T05:43:11.625Z,22.25
2019-02-21T05:43:42.837Z,23.27
2019-02-21T05:44:14.050Z,22.77
2019-02-21T05:44:45.276Z,23.60
2019-02-21T05:45:16.488Z,21.85
2019-02-21T05:45:47.688Z,22.80
2019-02-21T05:46:18.900Z,22.60
2019-02-21T05:46:50.163Z,22.27
2019-02-21T05:47:21.360Z,23.25
2019-02-21T05:47:52.615Z,22.10
2019-02-21T05:48:23.771Z,22.95
2019-02-21T05:48:54.983Z,21.27
2019-02-21T05:49:26.191Z,22.32
2019-02-21T05:49:57.405Z,22.45
2019-02-21T05:50:28.615Z,23.57
2019-02-21T05:50:59.831Z,23.92
2019-02-21T05:51:31.039Z,23.65
2019-02-21T05:52:02.313Z,22.20
2019-02-21T05:52:33.538Z,23.00
2019-02-21T05:53:04.761Z,24.32
2019-02-21T05:53:35.974Z,20.43
2019-02-21T05:54:07.199Z,23.95
2019-02-21T05:54:38.414Z,24.30
2019-02-21T05:55:09.730Z,23.87
2019-02-21T05:55:40.970Z,24.95
2019-02-21T05:56:12.173Z,24.60
2019-02-21T05:56:43.401Z,25.27
2019-02-21T05:57:14.649Z,24.72
2019-02-21T05:57:45.861Z,22.02
2019-02-21T05:58:17.064Z,24.82
2019-02-21T05:58:48.266Z,25.70
2019-02-21T05:59:19.462Z,25.68
2019-02-21T05:59:50.722Z,25.85
2019-02-21T06:00:21.933Z,25.23
2019-02-21T06:00:53.156Z,24.77
2019-02-21T06:01:24.502Z,22.75
2019-02-21T06:01:55.763Z,22.45
2019-02-21T06:02:27.040Z,23.85
2019-02-21T06:02:58.233Z,23.85
2019-02-21T06:03:29.431Z,25.25
2019-02-21T06:04:00.648Z,25.30
2019-02-21T06:04:31.859Z,26.12
2019-02-21T06:05:03.115Z,24.15
2019-02-21T06:05:34.369Z,26.00
2019-02-21T06:06:05.584Z,24.77
2019-02-21T06:06:36.794Z,23.80
2019-02-21T06:07:09.886Z,23.75
2019-02-21T06:07:40.997Z,25.27
2019-02-21T06:08:12.359Z,26.80
2019-02-21T06:08:44.220Z,25.02
2019-02-21T06:09:15.651Z,24.45
2019-02-21T06:09:46.856Z,25.62
2019-02-21T06:10:18.063Z,24.25
2019-02-21T06:10:49.328Z,23.73
2019-02-21T06:11:20.536Z,24.35
2019-02-21T06:11:51.802Z,24.20
2019-02-21T06:12:33.084Z,24.60
2019-02-21T06:12:55.959Z,23.83
2019-02-21T06:13:27.173Z,23.87
2019-02-21T06:13:58.416Z,22.82
2019-02-21T06:14:29.623Z,23.15
2019-02-21T06:15:00.895Z,22.05
2019-02-21T06:15:32.150Z,24.75
2019-02-21T06:16:03.378Z,21.97
2019-02-21T06:16:34.595Z,21.45
2019-02-21T06:17:05.798Z,22.80
2019-02-21T06:17:37.005Z,21.52
2019-02-21T06:18:08.210Z,22.07
2019-02-21T06:18:39.471Z,22.32
2019-02-21T06:19:10.722Z,22.82
2019-02-21T06:19:42.003Z,22.35
2019-02-21T06:20:13.226Z,20.30
2019-02-21T06:20:44.417Z,21.87
2019-02-21T06:21:15.675Z,22.48
2019-02-21T06:21:46.859Z,21.35
2019-02-21T06:22:18.068Z,24.27
2019-02-21T06:22:49.281Z,23.75
2019-02-21T06:23:20.503Z,22.15
2019-02-21T06:23:51.728Z,24.32
2019-02-21T06:24:22.949Z,26.87
2019-02-21T06:24:54.212Z,23.35
2019-02-21T06:25:29.566Z,22.87
2019-02-21T06:26:01.081Z,23.52
2019-02-21T06:26:32.653Z,22.50
2019-02-21T06:27:03.908Z,23.10
2019-02-21T06:27:37.910Z,21.52
2019-02-21T06:28:08.073Z,22.40
2019-02-21T06:28:39.282Z,22.05
2019-02-21T06:29:11.864Z,21.42
2019-02-21T06:29:43.133Z,21.50
2019-02-21T06:30:14.338Z,21.17
2019-02-21T06:30:45.554Z,22.35
2019-02-21T06:31:16.807Z,22.55
2019-02-21T06:31:48.015Z,22.73
2019-02-21T06:32:21.295Z,22.85
2019-02-21T06:32:52.495Z,21.65
2019-02-21T06:33:23.714Z,22.67
2019-02-21T06:33:54.988Z,22.73
2019-02-21T06:34:26.288Z,22.77
2019-02-21T06:34:57.534Z,21.68
2019-02-21T06:35:28.758Z,18.55
2019-02-21T06:35:59.976Z,23.50
2019-02-21T06:36:31.171Z,23.12
2019-02-21T06:37:02.588Z,22.42
2019-02-21T06:37:33.796Z,22.07
2019-02-21T06:38:05.006Z,27.32
2019-02-21T06:38:36.215Z,21.62
2019-02-21T06:39:07.437Z,22.77
2019-02-21T06:39:38.666Z,23.50
2019-02-21T06:40:09.925Z,22.42
2019-02-21T06:40:41.173Z,20.15
2019-02-21T06:41:12.345Z,23.83
2019-02-21T06:41:43.576Z,24.25
2019-02-21T06:42:14.852Z,21.02
2019-02-21T06:42:46.066Z,20.97